createdAt,value
2018-08-04T00:01:09.727Z,100345.00
2018-08-04T00:06:13.794Z,100343.00
2018-08-04T00:11:16.828Z,100338.00
2018-08-04T00:16:19.976Z,100334.00
2018-08-04T00:21:22.982Z,100332.00
2018-08-04T00:26:31.679Z,100335.00
2018-08-04T00:31:34.673Z,100330.00
2018-08-04T00:36:37.672Z,100331.00
2018-08-04T00:41:40.692Z,100318.00
2018-08-04T00:46:43.714Z,100317.00
2018-08-04T00:51:46.720Z,100321.00
2018-08-04T00:56:49.892Z,100310.00
2018-08-04T01:01:53.106Z,100312.00
2018-08-04T01:06:56.419Z,100308.00
2018-08-04T01:11:59.427Z,100302.00
2018-08-04T01:17:02.436Z,100312.00
2018-08-04T01:22:05.730Z,100300.00
2018-08-04T01:27:08.700Z,100308.00
2018-08-04T01:32:12.449Z,100315.00
2018-08-04T01:37:15.691Z,100313.00
2018-08-04T01:42:18.689Z,100298.00
2018-08-04T01:47:21.893Z,100309.00
2018-08-04T01:52:24.862Z,100302.00
2018-08-04T01:57:28.093Z,100299.00
2018-08-04T02:02:31.309Z,100300.00
2018-08-04T02:07:34.508Z,100293.00
2018-08-04T02:12:37.721Z,100299.00
2018-08-04T02:17:40.719Z,100292.00
2018-08-04T02:22:43.939Z,100286.00
2018-08-04T02:27:47.065Z,100283.00
2018-08-04T02:32:50.202Z,100278.00
2018-08-04T02:37:53.279Z,100273.00
2018-08-04T02:42:56.274Z,100281.00
2018-08-04T02:47:59.259Z,100275.00
2018-08-04T02:53:02.475Z,100273.00
2018-08-04T02:58:05.681Z,100280.00
2018-08-04T03:03:09.396Z,100279.00
2018-08-04T03:08:12.395Z,100287.00
2018-08-04T03:13:15.361Z,100283.00
2018-08-04T03:18:18.625Z,100289.00
2018-08-04T03:23:21.931Z,100285.00
2018-08-04T03:28:25.150Z,100281.00
2018-08-04T03:33:28.140Z,100288.00
2018-08-04T03:38:31.356Z,100292.00
2018-08-04T03:43:34.547Z,100292.00
2018-08-04T03:48:37.761Z,100294.00
2018-08-04T03:53:40.838Z,100291.00
2018-08-04T03:58:43.839Z,100292.00
2018-08-04T04:03:46.803Z,100288.00
2018-08-04T04:08:49.892Z,100305.00
2018-08-04T04:13:52.996Z,100300.00
2018-08-04T04:18:56.199Z,100302.00
2018-08-04T04:23:59.416Z,100311.00
2018-08-04T04:29:02.617Z,100319.00
2018-08-04T04:34:06.161Z,100321.00
2018-08-04T04:39:10.531Z,100330.00
2018-08-04T04:44:13.771Z,100332.00
2018-08-04T04:49:16.978Z,100339.00
2018-08-04T04:54:20.096Z,100339.00
2018-08-04T04:59:23.066Z,100336.00
2018-08-04T05:04:26.306Z,100345.00
2018-08-04T05:09:29.515Z,100357.00
2018-08-04T05:14:32.531Z,100357.00
2018-08-04T05:19:35.527Z,100369.00
2018-08-04T05:24:38.585Z,100372.00
2018-08-04T05:29:41.938Z,100387.00
2018-08-04T05:34:44.909Z,100386.00
2018-08-04T05:39:47.907Z,100395.00
2018-08-04T05:44:51.116Z,100388.00
2018-08-04T05:49:54.149Z,100406.00
2018-08-04T05:54:57.163Z,100389.00
2018-08-04T06:00:00.219Z,100404.00
2018-08-04T06:05:03.369Z,100411.00
2018-08-04T06:10:06.441Z,100392.00
2018-08-04T06:15:09.467Z,100402.00
2018-08-04T06:20:12.701Z,100412.00
2018-08-04T06:25:15.736Z,100422.00
2018-08-04T06:30:18.892Z,100432.00
2018-08-04T06:35:21.932Z,100432.00
2018-08-04T06:40:25.229Z,100460.00
2018-08-04T06:45:28.228Z,100453.00
2018-08-04T06:50:31.536Z,100464.00
2018-08-04T06:55:34.744Z,100469.00
2018-08-04T07:00:37.769Z,100471.00
2018-08-04T07:05:40.798Z,100480.00
2018-08-04T07:10:43.970Z,100476.00
2018-08-04T07:15:47.084Z,100474.00
2018-08-04T07:20:50.116Z,100477.00
2018-08-04T07:25:53.397Z,100481.00
2018-08-04T07:30:56.414Z,100477.00
2018-08-04T07:35:59.595Z,100478.00
2018-08-04T07:41:02.853Z,100486.00
2018-08-04T07:46:06.122Z,100494.00
2018-08-04T07:51:09.195Z,100492.00
2018-08-04T07:56:12.461Z,100501.00
2018-08-04T08:01:15.518Z,100479.00
2018-08-04T08:06:18.685Z,100487.00
2018-08-04T08:11:22.014Z,100468.00
2018-08-04T08:16:25.176Z,100475.00
2018-08-04T08:21:28.203Z,100476.00
2018-08-04T08:26:31.432Z,100476.00
2018-08-04T08:31:34.570Z,100488.00
2018-08-04T08:36:37.641Z,100481.00
2018-08-04T08:41:40.936Z,100478.00
2018-08-04T08:46:43.999Z,100470.00
2018-08-04T08:51:47.405Z,100465.00
2018-08-04T08:56:50.479Z,100460.00
2018-08-04T09:01:53.544Z,100457.00
2018-08-04T09:06:56.558Z,100444.00
2018-08-04T09:11:59.603Z,100439.00
2018-08-04T09:17:02.863Z,100451.00
2018-08-04T09:22:06.159Z,100443.00
2018-08-04T09:27:09.276Z,100435.00
2018-08-04T09:32:12.615Z,100444.00
2018-08-04T09:37:15.739Z,100439.00
2018-08-04T09:42:18.911Z,100439.00
2018-08-04T09:47:22.003Z,100450.00
2018-08-04T09:52:25.252Z,100449.00
2018-08-04T09:57:28.338Z,100442.00
2018-08-04T10:02:31.782Z,100436.00
2018-08-04T10:07:35.063Z,100433.00
2018-08-04T10:12:38.061Z,100447.00
2018-08-04T10:17:42.508Z,100461.00
2018-08-04T10:22:45.507Z,100461.00
2018-08-04T10:27:48.817Z,100460.00
2018-08-04T10:32:51.829Z,100443.00
2018-08-04T10:37:55.024Z,100434.00
2018-08-04T10:42:58.212Z,100436.00
2018-08-04T10:48:01.438Z,100430.00
2018-08-04T10:53:04.895Z,100427.00
2018-08-04T10:58:08.041Z,100421.00
2018-08-04T11:03:11.266Z,100432.00
2018-08-04T11:08:14.356Z,100425.00
2018-08-04T11:13:17.553Z,100417.00
2018-08-04T11:18:20.886Z,100413.00
2018-08-04T11:23:23.931Z,100408.00
2018-08-04T11:28:27.104Z,100413.00
2018-08-04T11:33:30.149Z,100408.00
2018-08-04T11:38:33.291Z,100406.00
2018-08-04T11:43:36.342Z,100401.00
2018-08-04T11:48:40.165Z,100405.00
2018-08-04T11:53:43.181Z,100406.00
2018-08-04T11:58:46.222Z,100401.00
2018-08-04T12:03:49.287Z,100396.00
2018-08-04T12:08:52.271Z,100399.00
2018-08-04T12:13:55.464Z,100392.00
2018-08-04T12:18:58.624Z,100378.00
2018-08-04T12:24:01.673Z,100393.00
2018-08-04T12:29:05.108Z,100394.00
2018-08-04T12:34:08.104Z,100396.00
2018-08-04T12:39:11.543Z,100400.00
2018-08-04T12:44:15.032Z,100392.00
2018-08-04T12:49:18.060Z,100389.00
2018-08-04T12:54:21.305Z,100389.00
2018-08-04T12:59:24.458Z,100376.00
2018-08-04T13:04:27.757Z,100372.00
2018-08-04T13:09:30.764Z,100357.00
2018-08-04T13:14:33.884Z,100366.00
2018-08-04T13:19:37.068Z,100353.00
2018-08-04T13:24:40.330Z,100358.00
2018-08-04T13:29:43.357Z,100347.00
2018-08-04T13:34:46.742Z,100341.00
2018-08-04T13:39:50.024Z,100338.00
2018-08-04T13:44:53.267Z,100338.00
2018-08-04T13:49:56.294Z,100330.00
2018-08-04T13:54:59.308Z,100335.00
2018-08-04T14:00:05.232Z,100341.00
2018-08-04T14:05:08.345Z,100337.00
2018-08-04T14:10:11.392Z,100338.00
2018-08-04T14:15:14.425Z,100337.00
2018-08-04T14:20:17.556Z,100335.00
2018-08-04T14:25:20.847Z,100335.00
2018-08-04T14:30:23.897Z,100342.00
2018-08-04T14:35:27.208Z,100339.00
2018-08-04T14:40:30.281Z,100347.00
2018-08-04T14:45:33.349Z,100335.00
2018-08-04T14:50:36.532Z,100331.00
2018-08-04T14:55:39.576Z,100331.00
2018-08-04T15:00:42.818Z,100323.00
2018-08-04T15:05:45.892Z,100323.00
2018-08-04T15:10:49.213Z,100321.00
2018-08-04T15:15:52.522Z,100324.00
2018-08-04T15:20:55.738Z,100320.00
2018-08-04T15:25:59.056Z,100306.00
2018-08-04T15:31:02.260Z,100313.00
2018-08-04T15:36:05.770Z,100302.00
2018-08-04T15:41:09.071Z,100295.00
2018-08-04T15:46:12.280Z,100290.00
2018-08-04T15:51:15.586Z,100303.00
2018-08-04T15:56:18.925Z,100303.00
2018-08-04T16:01:21.920Z,100298.00
2018-08-04T16:06:25.124Z,100296.00
2018-08-04T16:11:28.196Z,100307.00
2018-08-04T16:16:31.231Z,100306.00
2018-08-04T16:21:34.457Z,100293.00
2018-08-04T16:26:38.340Z,100298.00
2018-08-04T16:31:41.367Z,100305.00
2018-08-04T16:36:44.680Z,100307.00
2018-08-04T16:41:47.711Z,100307.00
2018-08-04T16:46:50.987Z,100307.00
2018-08-04T16:51:54.085Z,100304.00
2018-08-04T16:56:57.216Z,100309.00
2018-08-04T17:02:00.435Z,100310.00
2018-08-04T17:07:03.564Z,100312.00
2018-08-04T17:12:06.823Z,100315.00
2018-08-04T17:17:10.108Z,100317.00
2018-08-04T17:22:13.388Z,100330.00
2018-08-04T17:27:16.378Z,100330.00
2018-08-04T17:32:19.929Z,100334.00
2018-08-04T17:37:22.972Z,100338.00
2018-08-04T17:42:26.008Z,100335.00
2018-08-04T17:47:30.046Z,100342.00
2018-08-04T17:52:33.094Z,100347.00
2018-08-04T17:57:36.112Z,100341.00
2018-08-04T18:02:39.558Z,100348.00
2018-08-04T18:07:42.619Z,100349.00
2018-08-04T18:12:45.851Z,100351.00
2018-08-04T18:17:49.269Z,100359.00
2018-08-04T18:22:52.284Z,100356.00
2018-08-04T18:27:55.679Z,100358.00
2018-08-04T18:32:58.831Z,100359.00
2018-08-04T18:38:01.958Z,100363.00
2018-08-04T18:43:05.076Z,100375.00
2018-08-04T18:48:08.111Z,100366.00
2018-08-04T18:53:11.187Z,100368.00
2018-08-04T18:58:14.215Z,100369.00
2018-08-04T19:03:17.315Z,100374.00
2018-08-04T19:08:20.825Z,100373.00
2018-08-04T19:13:23.926Z,100388.00
2018-08-04T19:18:27.258Z,100390.00
2018-08-04T19:23:31.216Z,100379.00
2018-08-04T19:28:34.468Z,100390.00
2018-08-04T19:33:37.705Z,100396.00
2018-08-04T19:38:40.911Z,100398.00
2018-08-04T19:43:44.073Z,100399.00
2018-08-04T19:48:47.338Z,100407.00
2018-08-04T19:53:50.499Z,100417.00
2018-08-04T19:58:53.756Z,100420.00
2018-08-04T20:03:56.809Z,100418.00
2018-08-04T20:08:59.951Z,100425.00
2018-08-04T20:14:03.043Z,100432.00
2018-08-04T20:19:06.226Z,100432.00
2018-08-04T20:24:09.286Z,100435.00
2018-08-04T20:29:12.334Z,100441.00
2018-08-04T20:34:15.707Z,100438.00
2018-08-04T20:39:19.018Z,100445.00
2018-08-04T20:44:22.030Z,100444.00
2018-08-04T20:49:25.044Z,100444.00
2018-08-04T20:54:28.329Z,100453.00
2018-08-04T20:59:31.410Z,100449.00
2018-08-04T21:04:35.673Z,100452.00
2018-08-04T21:09:38.838Z,100448.00
2018-08-04T21:14:41.862Z,100443.00
2018-08-04T21:19:44.947Z,100445.00
2018-08-04T21:24:47.991Z,100444.00
2018-08-04T21:29:51.061Z,100430.00
2018-08-04T21:34:54.517Z,100432.00
2018-08-04T21:39:57.782Z,100443.00
2018-08-04T21:45:00.811Z,100454.00
2018-08-04T21:50:04.270Z,100448.00
2018-08-04T21:55:07.377Z,100448.00
2018-08-04T22:00:12.510Z,100448.00
2018-08-04T22:05:15.699Z,100438.00
2018-08-04T22:10:18.742Z,100444.00
2018-08-04T22:15:22.027Z,100453.00
2018-08-04T22:20:25.671Z,100456.00
2018-08-04T22:25:29.676Z,100447.00
2018-08-04T22:30:32.703Z,100453.00
2018-08-04T22:35:35.929Z,100459.00
2018-08-04T22:40:39.103Z,100458.00
2018-08-04T22:46:08.924Z,100462.00
2018-08-04T22:51:12.022Z,100468.00
2018-08-04T22:56:15.093Z,100467.00
2018-08-04T23:01:18.144Z,100458.00
2018-08-04T23:06:21.447Z,100462.00
2018-08-04T23:11:24.492Z,100456.00
2018-08-04T23:16:27.483Z,100456.00
2018-08-04T23:21:30.539Z,100463.00
2018-08-04T23:26:33.560Z,100456.00
2018-08-04T23:31:36.616Z,100453.00
2018-08-04T23:36:40.720Z,100457.00
2018-08-04T23:41:43.936Z,100458.00
2018-08-04T23:46:47.121Z,100452.00
2018-08-04T23:51:50.430Z,100453.00
2018-08-04T23:56:53.632Z,100446.00
